Spirit Of Seattle — WTK6831 — position and weather

sailwx.info

Track history (hours):
 
Tides and Currents Weather Stations Pressure Air Temp Water Temp Dewpoint Dewpoint Depression Visibility Wind Speed Wind Dir Waves Ship Positions

Spirit Of Seattle

Owner: ARGOSY Lp, SEATTLE, WA. More information available from US FCC via Universal Licensing System and Coast Guard Vessel Documentation Center.

Last reported at 2018-Jul-20 00:30 UTC. Time now 2018-Jul-20 00:41 UTC.
Position N 47°36' W 122°21'.

Length 36 m; draft 2 m.

Type: Passenger vessel. MMSI: 367013020.

Date/timePositionNaut miles runAvg speedWind from/ knotsBaromVisibWave heightAir tempDewpointWater temp
2018-Jul-20 00:30N 47°36' W 122°21'0 0.2
2018-Jul-20 00:00N 47°36' W 122°20'2 3.7
2018-Jul-19 23:29N 47°37' W 122°23'2 3.9
2018-Jul-19 23:00N 47°36' W 122°20'1 1.9
2018-Jul-19 22:30N 47°35' W 122°21'1 1.9
2018-Jul-19 21:58N 47°36' W 122°21'0 0.5
2018-Jul-19 21:30N 47°36' W 122°20'1 2.8
2018-Jul-19 21:00N 47°36' W 122°22'1 2.6
2018-Jul-19 20:30N 47°36' W 122°21'0 0.5
2018-Jul-19 20:01N 47°36' W 122°21'2 3.7
2018-Jul-19 19:30N 47°37' W 122°23'2 3.8
2018-Jul-19 19:00N 47°36' W 122°20'1 1.7
2018-Jul-19 18:31N 47°35' W 122°21'2 3.1
2018-Jul-19 18:00N 47°37' W 122°22'1 2.0
2018-Jul-19 17:30N 47°36' W 122°20'1 2.7
2018-Jul-19 17:01N 47°36' W 122°22'1 2.6
2018-Jul-19 16:30N 47°36' W 122°20'0 0.0
2018-Jul-19 16:00N 47°36' W 122°20'0 0.0
2018-Jul-19 15:30N 47°36' W 122°20'0 0.0
2018-Jul-19 12:46N 47°36' W 122°20'0 0.0
2018-Jul-19 12:28N 47°36' W 122°20'0 0.0
2018-Jul-19 11:59N 47°36' W 122°20'0 0.0
2018-Jul-19 11:26N 47°36' W 122°20'0 0.0
2018-Jul-19 10:59N 47°36' W 122°20'0 0.0
2018-Jul-19 10:30N 47°36' W 122°20'0 0.0
2018-Jul-19 10:00N 47°36' W 122°20'0 0.0
2018-Jul-19 09:30N 47°36' W 122°20'0 0.0
2018-Jul-19 08:58N 47°36' W 122°20'0 0.0
2018-Jul-19 08:28N 47°36' W 122°20'0 0.0
2018-Jul-19 07:58N 47°36' W 122°20'0 0.0
2018-Jul-19 07:29N 47°36' W 122°20'0 0.0
2018-Jul-19 06:59N 47°36' W 122°20'0 0.0
2018-Jul-19 06:29N 47°36' W 122°20'0 0.0
2018-Jul-19 06:00N 47°36' W 122°20'0 0.0
2018-Jul-19 05:30N 47°36' W 122°20'0 0.0
2018-Jul-19 05:00N 47°36' W 122°20'0 0.0
2018-Jul-19 04:28N 47°36' W 122°20'0 0.3
2018-Jul-19 04:01N 47°36' W 122°21'1 2.7
2018-Jul-19 03:31N 47°37' W 122°23'1 3.0
2018-Jul-19 03:00N 47°36' W 122°20'2 3.0
2018-Jul-19 02:31N 47°35' W 122°21'3 5.3
2018-Jul-19 02:01N 47°37' W 122°22'2 3.0
2018-Jul-19 01:30N 47°36' W 122°20'1 2.2
2018-Jul-19 01:01N 47°35' W 122°21'1 2.0
2018-Jul-19 00:30N 47°36' W 122°21'0 0.4
2018-Jul-19 00:00N 47°36' W 122°21'2 3.5
2018-Jul-18 23:31N 47°37' W 122°23'2 3.6
2018-Jul-18 23:00N 47°36' W 122°20'1 2.5
2018-Jul-18 22:31N 47°35' W 122°21'2 4.5
2018-Jul-18 22:00N 47°37' W 122°22'1 2.7
2018-Jul-18 21:30N 47°36' W 122°20'1 2.7
2018-Jul-18 21:00N 47°36' W 122°22'1 2.6
2018-Jul-18 20:31N 47°36' W 122°21'0 0.5
2018-Jul-18 20:01N 47°36' W 122°21'2 4.2
2018-Jul-18 19:31N 47°37' W 122°23'2 4.2
2018-Jul-18 19:00N 47°36' W 122°20'1 1.7
2018-Jul-18 18:30N 47°35' W 122°21'2 3.4
2018-Jul-18 18:01N 47°37' W 122°22'1 2.3
2018-Jul-18 17:30N 47°36' W 122°20'1 2.7
2018-Jul-18 17:00N 47°36' W 122°22'1 2.6
2018-Jul-18 16:31N 47°36' W 122°21'0 0.2
2018-Jul-18 15:59N 47°36' W 122°20'0 0.0
2018-Jul-18 15:29N 47°36' W 122°20'0 0.0
2018-Jul-18 14:59N 47°36' W 122°20'0 0.0
2018-Jul-18 14:30N 47°36' W 122°20'0 0.0
2018-Jul-18 13:27N 47°36' W 122°20'0 0.0
2018-Jul-18 12:58N 47°36' W 122°20'0 0.0
2018-Jul-18 12:28N 47°36' W 122°20'0 0.0
2018-Jul-18 11:58N 47°36' W 122°20'0 0.0
2018-Jul-18 11:29N 47°36' W 122°20'0 0.0
2018-Jul-18 10:29N 47°36' W 122°20'0 0.0
2018-Jul-18 10:00N 47°36' W 122°20'0 0.0
2018-Jul-18 09:30N 47°36' W 122°20'0 0.0
2018-Jul-18 09:00N 47°36' W 122°20'0 0.0
2018-Jul-18 08:28N 47°36' W 122°20'0 0.0
2018-Jul-18 07:58N 47°36' W 122°20'0 0.0
2018-Jul-18 07:28N 47°36' W 122°20'0 0.0
2018-Jul-18 06:59N 47°36' W 122°20'0 0.0
2018-Jul-18 06:29N 47°36' W 122°20'0 0.0
2018-Jul-18 05:59N 47°36' W 122°20'0 0.0
2018-Jul-18 05:30N 47°36' W 122°20'0 0.0
2018-Jul-18 05:00N 47°36' W 122°20'0 0.0
2018-Jul-18 04:30N 47°36' W 122°20'0 0.4
2018-Jul-18 04:00N 47°36' W 122°21'2 3.0
2018-Jul-18 03:30N 47°37' W 122°23'2 3.3
2018-Jul-18 03:00N 47°36' W 122°20'1 2.4
2018-Jul-18 02:30N 47°35' W 122°21'2 4.7
2018-Jul-18 02:01N 47°37' W 122°22'1 2.9
2018-Jul-18 01:30N 47°36' W 122°20'1 2.9
2018-Jul-18 01:00N 47°35' W 122°22'1 2.8
2018-Jul-18 00:30N 47°36' W 122°21'0 0.1
2018-Jul-18 00:00N 47°36' W 122°21'2 3.4
2018-Jul-17 23:30N 47°37' W 122°23'2 3.5
2018-Jul-17 23:00N 47°36' W 122°20'1 1.8
2018-Jul-17 22:31N 47°35' W 122°21'2 3.5
2018-Jul-17 22:00N 47°37' W 122°22'1 2.3
2018-Jul-17 21:30N 47°36' W 122°20'1 2.9
2018-Jul-17 21:01N 47°35' W 122°22'1 2.7
2018-Jul-17 20:30N 47°36' W 122°21'0 0.3
2018-Jul-17 20:00N 47°36' W 122°21'1 2.9
2018-Jul-17 19:30N 47°37' W 122°23'2 3.1
2018-Jul-17 19:00N 47°36' W 122°20'1 1.7
2018-Jul-17 18:30N 47°35' W 122°21'2 3.6
2018-Jul-17 18:00N 47°37' W 122°22'1 2.3
2018-Jul-17 17:30N 47°36' W 122°20'1 2.8
2018-Jul-17 17:00N 47°35' W 122°22'1 2.5
2018-Jul-17 16:29N 47°36' W 122°21'0 0.1
2018-Jul-17 16:00N 47°36' W 122°20'0 0.0
2018-Jul-17 15:30N 47°36' W 122°20'0 0.0
2018-Jul-17 15:00N 47°36' W 122°20'0 0.0
2018-Jul-17 14:29N 47°36' W 122°20'0 0.0
2018-Jul-17 13:59N 47°36' W 122°20'0 0.0
2018-Jul-17 13:30N 47°36' W 122°20'0 0.0
2018-Jul-17 13:00N 47°36' W 122°20'0 0.0
2018-Jul-17 12:30N 47°36' W 122°20'0 0.0
2018-Jul-17 11:58N 47°36' W 122°20'0 0.0
2018-Jul-17 11:28N 47°36' W 122°20'0 0.0
2018-Jul-17 10:58N 47°36' W 122°20'0 0.0
2018-Jul-17 10:29N 47°36' W 122°20'0 0.0
2018-Jul-17 09:59N 47°36' W 122°20'0 0.0
2018-Jul-17 09:29N 47°36' W 122°20'0 0.0
2018-Jul-17 09:00N 47°36' W 122°20'0 0.0
2018-Jul-17 08:30N 47°36' W 122°20'0 0.0
2018-Jul-17 08:00N 47°36' W 122°20'0 0.0
2018-Jul-17 07:28N 47°36' W 122°20'0 0.0
2018-Jul-17 06:58N 47°36' W 122°20'0 0.0
2018-Jul-17 06:28N 47°36' W 122°20'0 0.0
2018-Jul-17 05:59N 47°36' W 122°20'0 0.0
2018-Jul-17 05:29N 47°36' W 122°20'0 0.0
2018-Jul-17 04:56N 47°36' W 122°20'0 0.0
2018-Jul-17 04:30N 47°36' W 122°20'0 0.3
2018-Jul-17 04:00N 47°36' W 122°21'2 3.4
2018-Jul-17 03:30N 47°37' W 122°23'2 3.8
2018-Jul-17 03:00N 47°36' W 122°20'1 2.1
2018-Jul-17 02:30N 47°35' W 122°21'2 4.3
2018-Jul-17 02:00N 47°37' W 122°22'1 2.7
2018-Jul-17 01:30N 47°36' W 122°20'1 2.8
2018-Jul-17 01:00N 47°35' W 122°22'1 2.7
2018-Jul-17 00:30N 47°36' W 122°21'2 1.6
2018-Jul-16 23:30N 47°37' W 122°23'2 3.6
2018-Jul-16 23:00N 47°36' W 122°20'1 2.2
2018-Jul-16 22:30N 47°35' W 122°21'2 4.2
2018-Jul-16 22:00N 47°37' W 122°22'1 2.5
2018-Jul-16 21:29N 47°36' W 122°20'1 2.4
2018-Jul-16 21:00N 47°35' W 122°22'1 2.4
2018-Jul-16 20:30N 47°36' W 122°21'0 0.8
2018-Jul-16 20:00N 47°36' W 122°21'1 3.0
2018-Jul-16 19:30N 47°37' W 122°23'1 2.7
2018-Jul-16 18:59N 47°36' W 122°20'1 2.2
2018-Jul-16 18:30N 47°35' W 122°21'2 4.7
2018-Jul-16 18:00N 47°37' W 122°22'2 2.9
2018-Jul-16 17:29N 47°36' W 122°20'1 2.4
2018-Jul-16 17:00N 47°35' W 122°22'1 2.2
2018-Jul-16 16:28N 47°36' W 122°20'0 0.0
2018-Jul-16 15:58N 47°36' W 122°20'0 0.0
2018-Jul-16 15:28N 47°36' W 122°20'0 0.0
2018-Jul-16 14:59N 47°36' W 122°20'0 0.0
2018-Jul-16 14:29N 47°36' W 122°20'0 0.0
2018-Jul-16 13:59N 47°36' W 122°20'0 0.0
2018-Jul-16 13:30N 47°36' W 122°20'0 0.0
2018-Jul-16 13:00N 47°36' W 122°20'0 0.0
2018-Jul-16 12:30N 47°36' W 122°20'0 0.0
2018-Jul-16 11:58N 47°36' W 122°20'0 0.0
2018-Jul-16 11:28N 47°36' W 122°20'0 0.0
2018-Jul-16 10:58N 47°36' W 122°20'0 0.0
2018-Jul-16 10:29N 47°36' W 122°20'0 0.0
2018-Jul-16 09:59N 47°36' W 122°20'0 0.0
2018-Jul-16 09:29N 47°36' W 122°20'0 0.0
2018-Jul-16 09:00N 47°36' W 122°20'0 0.0
2018-Jul-16 08:30N 47°36' W 122°20'0 0.0
2018-Jul-16 08:00N 47°36' W 122°20'0 0.0
2018-Jul-16 07:28N 47°36' W 122°20'0 0.0
2018-Jul-16 06:58N 47°36' W 122°20'0 0.0
2018-Jul-16 06:28N 47°36' W 122°20'0 0.0
2018-Jul-16 05:59N 47°36' W 122°20'0 0.0
2018-Jul-16 05:29N 47°36' W 122°20'0 0.0
2018-Jul-16 04:59N 47°36' W 122°20'0 0.0
2018-Jul-16 04:30N 47°36' W 122°20'0 0.1
2018-Jul-16 04:00N 47°36' W 122°21'2 3.1
2018-Jul-16 03:30N 47°36' W 122°23'2 3.0
2018-Jul-16 02:58N 47°36' W 122°20'1 2.5
2018-Jul-16 02:31N 47°35' W 122°21'2 4.5
2018-Jul-16 02:01N 47°37' W 122°22'1 2.8
2018-Jul-16 01:30N 47°36' W 122°20'1 2.4
2018-Jul-16 01:00N 47°35' W 122°22'1 2.5
2018-Jul-16 00:30N 47°36' W 122°21'0 0.4
2018-Jul-15 23:59N 47°36' W 122°21'1 3.0
2018-Jul-15 23:30N 47°36' W 122°23'1 2.0
2018-Jul-15 22:45N 47°36' W 122°20'1 4.6
2018-Jul-15 22:30N 47°35' W 122°21'2 4.3
2018-Jul-15 22:01N 47°37' W 122°22'1 2.0
2018-Jul-15 21:23N 47°36' W 122°21'2 4.0
2018-Jul-15 21:00N 47°36' W 122°23'2 1.7
2018-Jul-15 20:04N 47°36' W 122°20'0 2.7
2018-Jul-15 20:00N 47°36' W 122°21'2 3.5
2018-Jul-15 19:30N 47°37' W 122°23'2 3.7
2018-Jul-15 19:00N 47°36' W 122°20'1 2.3
2018-Jul-15 18:30N 47°35' W 122°21'2 4.1
2018-Jul-15 18:00N 47°37' W 122°22'1 1.8
2018-Jul-15 17:21N 47°36' W 122°21'1 3.7
2018-Jul-15 17:00N 47°35' W 122°22'1 2.5
2018-Jul-15 16:31N 47°36' W 122°21'0 0.2
2018-Jul-15 15:59N 47°36' W 122°20'0 0.0
2018-Jul-15 15:30N 47°36' W 122°20'0 0.0
2018-Jul-15 15:00N 47°36' W 122°20'0 0.0
2018-Jul-15 14:31N 47°36' W 122°20'0 0.0
2018-Jul-15 14:00N 47°36' W 122°20'0 0.0
2018-Jul-15 13:30N 47°36' W 122°20'0 0.0
2018-Jul-15 13:00N 47°36' W 122°20'0 0.0
2018-Jul-15 12:30N 47°36' W 122°20'0 0.0
2018-Jul-15 12:01N 47°36' W 122°20'0 0.0
2018-Jul-15 11:30N 47°36' W 122°20'0 0.0
2018-Jul-15 11:00N 47°36' W 122°20'0 0.0
2018-Jul-15 10:31N 47°36' W 122°20'0 0.0
2018-Jul-15 10:01N 47°36' W 122°20'0 0.0
2018-Jul-15 09:31N 47°36' W 122°20'0 0.0
2018-Jul-15 09:01N 47°36' W 122°20'0 0.0
2018-Jul-15 08:31N 47°36' W 122°20'0 0.0
2018-Jul-15 08:01N 47°36' W 122°20'0 0.0
2018-Jul-15 07:30N 47°36' W 122°20'0 0.0
2018-Jul-15 07:00N 47°36' W 122°20'0 0.0
2018-Jul-15 06:30N 47°36' W 122°20'0 0.0
2018-Jul-15 04:45N 47°36' W 122°20'0 0.0
2018-Jul-15 04:28N 47°36' W 122°20'0 0.3
2018-Jul-15 03:57N 47°36' W 122°21'1 3.4
2018-Jul-15 03:31N 47°37' W 122°23'2 3.2
2018-Jul-15 03:00N 47°36' W 122°20'1 2.1
2018-Jul-15 02:31N 47°35' W 122°21'2 4.1
2018-Jul-15 02:01N 47°37' W 122°22'1 2.3
2018-Jul-15 01:25N 47°36' W 122°20'1 2.8
2018-Jul-15 01:01N 47°36' W 122°22'1 2.1
2018-Jul-15 00:29N 47°36' W 122°21'0 0.1
2018-Jul-15 00:00N 47°36' W 122°21'1 2.9
2018-Jul-14 23:31N 47°37' W 122°23'1 2.9
2018-Jul-14 23:00N 47°36' W 122°20'1 2.4
2018-Jul-14 22:31N 47°35' W 122°21'2 3.8
2018-Jul-14 22:00N 47°37' W 122°22'1 1.9
2018-Jul-14 21:30N 47°36' W 122°20'1 2.8
2018-Jul-14 21:00N 47°36' W 122°22'1 2.7
2018-Jul-14 20:30N 47°36' W 122°21'0 0.2
2018-Jul-14 20:00N 47°36' W 122°21'2 3.7
2018-Jul-14 19:31N 47°37' W 122°23'2 3.8
2018-Jul-14 19:01N 47°36' W 122°20'1 2.4
2018-Jul-14 18:31N 47°35' W 122°21'2 4.1
2018-Jul-14 18:00N 47°37' W 122°22'1 2.4
2018-Jul-14 17:31N 47°36' W 122°20'1 2.8
2018-Jul-14 17:01N 47°36' W 122°22'1 2.8
2018-Jul-14 16:30N 47°36' W 122°20'0 0.0
2018-Jul-14 16:00N 47°36' W 122°20'0 0.0
2018-Jul-14 15:30N 47°36' W 122°20'0 0.0
2018-Jul-14 14:56N 47°36' W 122°20'0 0.0
2018-Jul-14 14:30N 47°36' W 122°20'0 0.0
2018-Jul-14 13:30N 47°36' W 122°20'0 0.0
2018-Jul-14 12:58N 47°36' W 122°20'0 0.0
2018-Jul-14 12:28N 47°36' W 122°20'0 0.0
2018-Jul-14 11:58N 47°36' W 122°20'0 0.0
2018-Jul-14 11:29N 47°36' W 122°20'0 0.0
2018-Jul-14 10:59N 47°36' W 122°20'0 0.0
2018-Jul-14 10:29N 47°36' W 122°20'0 0.0
2018-Jul-14 10:00N 47°36' W 122°20'0 0.0
2018-Jul-14 09:30N 47°36' W 122°20'0 0.0
2018-Jul-14 08:57N 47°36' W 122°20'0 0.0
2018-Jul-14 08:31N 47°36' W 122°20'0 0.0
2018-Jul-14 07:55N 47°36' W 122°20'0 0.0
2018-Jul-14 06:56N 47°36' W 122°20'0 0.0
2018-Jul-14 06:20N 47°36' W 122°20'0 0.0
2018-Jul-14 05:56N 47°36' W 122°20'0 0.0
2018-Jul-14 05:27N 47°36' W 122°20'0 0.0
2018-Jul-14 05:00N 47°36' W 122°20'0 0.0
2018-Jul-14 04:30N 47°36' W 122°20'0 0.1
2018-Jul-14 04:00N 47°36' W 122°21'2 3.2
2018-Jul-14 03:30N 47°37' W 122°23'2 3.3
2018-Jul-14 03:00N 47°36' W 122°20'1 2.5
2018-Jul-14 02:30N 47°35' W 122°21'2 4.6
2018-Jul-14 02:00N 47°37' W 122°22'1 2.7
2018-Jul-14 01:30N 47°36' W 122°20'1 2.4
2018-Jul-14 01:00N 47°36' W 122°22'1 2.3
2018-Jul-14 00:30N 47°36' W 122°21'0 0.1
2018-Jul-14 00:00N 47°36' W 122°21'2 3.1
2018-Jul-13 23:30N 47°37' W 122°23'2 3.2
2018-Jul-13 23:00N 47°36' W 122°20'1 1.8
2018-Jul-13 22:30N 47°35' W 122°21'2 3.8
2018-Jul-13 22:00N 47°37' W 122°22'1 1.9
2018-Jul-13 21:23N 47°36' W 122°21'1 3.0
2018-Jul-13 21:00N 47°36' W 122°22'1 2.3
2018-Jul-13 20:30N 47°36' W 122°21'0 0.2
2018-Jul-13 20:00N 47°36' W 122°21'2 3.2
2018-Jul-13 19:30N 47°37' W 122°23'2 3.4
2018-Jul-13 19:00N 47°36' W 122°20'1 2.0
2018-Jul-13 18:30N 47°35' W 122°21'2 3.2
2018-Jul-13 18:00N 47°37' W 122°21'1 1.6
2018-Jul-13 17:30N 47°36' W 122°20'1 2.4
2018-Jul-13 17:00N 47°35' W 122°22'1 2.3
2018-Jul-13 16:29N 47°36' W 122°20'0 0.0
2018-Jul-13 16:00N 47°36' W 122°20'0 0.0
2018-Jul-13 15:30N 47°36' W 122°20'0 0.0
2018-Jul-13 15:00N 47°36' W 122°20'0 0.0
2018-Jul-13 14:30N 47°36' W 122°20'0 0.0
2018-Jul-13 13:30N 47°36' W 122°20'0 0.0
2018-Jul-13 13:00N 47°36' W 122°20'0 0.0
2018-Jul-13 12:30N 47°36' W 122°20'0 0.0
2018-Jul-13 12:00N 47°36' W 122°20'0 0.0
2018-Jul-13 11:30N 47°36' W 122°20'0 0.0
2018-Jul-13 11:00N 47°36' W 122°20'0 0.0
2018-Jul-13 10:30N 47°36' W 122°20'0 0.0
2018-Jul-13 10:00N 47°36' W 122°20'0 0.0
2018-Jul-13 09:30N 47°36' W 122°20'0 0.0
2018-Jul-13 09:00N 47°36' W 122°20'0 0.0
2018-Jul-13 08:30N 47°36' W 122°20'0 0.0
2018-Jul-13 08:00N 47°36' W 122°20'0 0.0
2018-Jul-13 07:30N 47°36' W 122°20'0 0.0
2018-Jul-13 06:59N 47°36' W 122°20'0 0.0
2018-Jul-13 06:30N 47°36' W 122°20'0 0.0
2018-Jul-13 06:00N 47°36' W 122°20'0 0.0
2018-Jul-13 05:30N 47°36' W 122°20'0 0.0
2018-Jul-13 05:00N 47°36' W 122°20'0 0.0
2018-Jul-13 04:30N 47°36' W 122°20'0 0.0
2018-Jul-13 04:00N 47°36' W 122°20'1 2.8
2018-Jul-13 03:30N 47°36' W 122°23'1 2.8
2018-Jul-13 03:00N 47°36' W 122°20'1 2.3
2018-Jul-13 02:30N 47°35' W 122°21'2 3.9
2018-Jul-13 02:00N 47°37' W 122°22'1 2.2
2018-Jul-13 01:30N 47°36' W 122°20'1 2.9
2018-Jul-13 01:00N 47°36' W 122°22'1 2.8
2018-Jul-13 00:30N 47°36' W 122°21'0 0.2
2018-Jul-13 00:00N 47°36' W 122°21'2 3.1
2018-Jul-12 23:30N 47°37' W 122°23'2 3.2
2018-Jul-12 23:00N 47°36' W 122°20'1 2.3
2018-Jul-12 22:30N 47°35' W 122°21'2 4.2
2018-Jul-12 22:00N 47°37' W 122°22'1 2.5
2018-Jul-12 21:30N 47°36' W 122°20'1 2.6
2018-Jul-12 21:00N 47°36' W 122°22'1 2.4
2018-Jul-12 20:30N 47°36' W 122°21'0 0.3
2018-Jul-12 20:00N 47°36' W 122°21'2 4.0
2018-Jul-12 19:30N 47°37' W 122°23'2 4.1
2018-Jul-12 19:00N 47°36' W 122°20'1 1.9
2018-Jul-12 18:30N 47°35' W 122°21'2 3.1
2018-Jul-12 18:00N 47°37' W 122°22'1 2.1
2018-Jul-12 17:30N 47°36' W 122°20'1 2.6
2018-Jul-12 17:00N 47°36' W 122°22'1 2.5
2018-Jul-12 16:30N 47°36' W 122°21'0 0.2
2018-Jul-12 15:59N 47°36' W 122°20'0 0.0
2018-Jul-12 15:30N 47°36' W 122°20'0 0.0
2018-Jul-12 15:00N 47°36' W 122°20'0 0.0
2018-Jul-12 14:30N 47°36' W 122°20'0 0.0
2018-Jul-12 13:58N 47°36' W 122°20'0 0.0
2018-Jul-12 13:28N 47°36' W 122°20'0 0.0
2018-Jul-12 12:58N 47°36' W 122°20'0 0.0
2018-Jul-12 12:29N 47°36' W 122°20'0 0.0
2018-Jul-12 11:59N 47°36' W 122°20'0 0.0
2018-Jul-12 11:29N 47°36' W 122°20'0 0.0
2018-Jul-12 11:00N 47°36' W 122°20'0 0.0
2018-Jul-12 10:30N 47°36' W 122°20'0 0.0
2018-Jul-12 10:00N 47°36' W 122°20'0 0.0
2018-Jul-12 09:28N 47°36' W 122°20'0 0.0
2018-Jul-12 08:58N 47°36' W 122°20'0 0.0
2018-Jul-12 08:28N 47°36' W 122°20'0 0.0
2018-Jul-12 07:59N 47°36' W 122°20'0 0.0
2018-Jul-12 07:29N 47°36' W 122°20'0 0.0
2018-Jul-12 06:59N 47°36' W 122°20'0 0.0
2018-Jul-12 06:27N 47°36' W 122°20'0 0.0
2018-Jul-12 06:00N 47°36' W 122°20'0 0.0
2018-Jul-12 05:30N 47°36' W 122°20'0 0.0
2018-Jul-12 04:58N 47°36' W 122°20'0 0.0
2018-Jul-12 04:28N 47°36' W 122°20'0 0.0
2018-Jul-12 03:58N 47°36' W 122°20'0 0.0
2018-Jul-12 03:29N 47°36' W 122°20'0 0.0
2018-Jul-12 02:59N 47°36' W 122°20'0 0.0
2018-Jul-12 02:29N 47°36' W 122°20'0 0.0
2018-Jul-12 02:00N 47°36' W 122°20'0 0.0
2018-Jul-12 01:30N 47°36' W 122°20'0 0.0
2018-Jul-12 01:00N 47°36' W 122°20'0 0.0
2018-Jul-12 00:28N 47°36' W 122°20'0 0.0
2018-Jul-11 23:58N 47°36' W 122°20'0 0.0
2018-Jul-11 23:28N 47°36' W 122°20'0 0.0
2018-Jul-11 22:59N 47°36' W 122°20'0 0.0
2018-Jul-11 22:11N 47°36' W 122°20'0 0.0
2018-Jul-11 21:59N 47°36' W 122°20'0 0.0
2018-Jul-11 21:30N 47°36' W 122°20'0 0.0
2018-Jul-11 21:00N 47°36' W 122°20'0 0.0
2018-Jul-11 20:30N 47°36' W 122°20'0 0.4
2018-Jul-11 20:00N 47°36' W 122°21'2 3.7
2018-Jul-11 19:30N 47°37' W 122°23'2 3.7
2018-Jul-11 19:00N 47°36' W 122°20'1 2.1
2018-Jul-11 18:30N 47°35' W 122°21'2 3.8
2018-Jul-11 18:00N 47°37' W 122°22'1 2.3
2018-Jul-11 17:29N 47°36' W 122°20'1 2.8
2018-Jul-11 17:00N 47°36' W 122°22'1 2.6
2018-Jul-11 16:31N 47°36' W 122°21'0 0.4
2018-Jul-11 15:59N 47°36' W 122°20'0 0.0
2018-Jul-11 15:29N 47°36' W 122°20'0 0.0
2018-Jul-11 14:59N 47°36' W 122°20'0 0.0
2018-Jul-11 14:30N 47°36' W 122°20'0 0.0
2018-Jul-11 14:00N 47°36' W 122°20'0 0.0
2018-Jul-11 13:30N 47°36' W 122°20'0 0.0
2018-Jul-11 13:01N 47°36' W 122°20'0 0.0
2018-Jul-11 12:28N 47°36' W 122°20'0 0.0
2018-Jul-11 11:58N 47°36' W 122°20'0 0.0
2018-Jul-11 11:29N 47°36' W 122°20'0 0.0
2018-Jul-11 10:59N 47°36' W 122°20'0 0.0
2018-Jul-11 10:29N 47°36' W 122°20'0 0.0
2018-Jul-11 10:00N 47°36' W 122°20'0 0.0
2018-Jul-11 09:30N 47°36' W 122°20'0 0.0
2018-Jul-11 09:00N 47°36' W 122°20'0 0.0
2018-Jul-11 08:30N 47°36' W 122°20'0 0.0
2018-Jul-11 07:58N 47°36' W 122°20'0 0.0
2018-Jul-11 07:28N 47°36' W 122°20'0 0.0
2018-Jul-11 06:56N 47°36' W 122°20'0 0.0
2018-Jul-11 06:29N 47°36' W 122°20'0 0.0
2018-Jul-11 05:59N 47°36' W 122°20'0 0.0
2018-Jul-11 05:29N 47°36' W 122°20'0 0.0
2018-Jul-11 05:00N 47°36' W 122°20'0 0.0
2018-Jul-11 04:30N 47°36' W 122°20'0 0.2
2018-Jul-11 04:01N 47°36' W 122°21'1 2.8
2018-Jul-11 03:31N 47°37' W 122°23'1 2.8
2018-Jul-11 02:59N 47°36' W 122°20'1 1.9
2018-Jul-11 02:31N 47°36' W 122°21'2 3.0
2018-Jul-11 02:01N 47°37' W 122°22'1 2.1
2018-Jul-11 01:30N 47°36' W 122°20'1 2.4
2018-Jul-11 01:01N 47°35' W 122°22'1 2.3
2018-Jul-11 00:30N 47°36' W 122°21'0 0.2
2018-Jul-11 00:00N 47°36' W 122°21'2 3.3
2018-Jul-10 23:31N 47°37' W 122°23'2 3.2
2018-Jul-10 22:58N 47°36' W 122°20'1 2.6
2018-Jul-10 22:30N 47°35' W 122°21'2 4.1
2018-Jul-10 22:00N 47°37' W 122°22'1 2.1
2018-Jul-10 21:28N 47°36' W 122°20'2 3.9
2018-Jul-10 21:00N 47°36' W 122°23'2 3.4
2018-Jul-10 20:28N 47°36' W 122°20'0 0.1
2018-Jul-10 20:00N 47°36' W 122°21'2 3.8
2018-Jul-10 19:30N 47°37' W 122°23'2 3.3
2018-Jul-10 18:55N 47°36' W 122°20'1 2.5
2018-Jul-10 18:30N 47°35' W 122°21'2 4.2
2018-Jul-10 18:00N 47°37' W 122°22'1 2.4
2018-Jul-10 17:25N 47°36' W 122°20'1 3.4
2018-Jul-10 17:01N 47°35' W 122°22'1 2.7
2018-Jul-10 16:30N 47°36' W 122°21'0 0.3
2018-Jul-10 15:58N 47°36' W 122°20'0 1.1
2018-Jul-10 15:30N 47°36' W 122°21'0 1.0
2018-Jul-10 15:00N 47°36' W 122°20'0 0.0
2018-Jul-10 14:30N 47°36' W 122°20'0 0.0
2018-Jul-10 13:58N 47°36' W 122°20'0 0.0
2018-Jul-10 13:28N 47°36' W 122°20'0 0.0
2018-Jul-10 12:58N 47°36' W 122°20'0 0.0
2018-Jul-10 12:29N 47°36' W 122°20'0 0.0
2018-Jul-10 11:59N 47°36' W 122°20'0 0.0
2018-Jul-10 11:29N 47°36' W 122°20'0 0.0
2018-Jul-10 11:00N 47°36' W 122°20'0 0.0
2018-Jul-10 10:30N 47°36' W 122°20'0 0.0
2018-Jul-10 10:00N 47°36' W 122°20'0 0.0
2018-Jul-10 09:28N 47°36' W 122°20'0 0.0
2018-Jul-10 08:58N 47°36' W 122°20'0 0.0
2018-Jul-10 08:28N 47°36' W 122°20'0 0.0
2018-Jul-10 07:59N 47°36' W 122°20'0 0.0
2018-Jul-10 07:29N 47°36' W 122°20'0 0.0
2018-Jul-10 06:59N 47°36' W 122°20'0 0.0
2018-Jul-10 06:30N 47°36' W 122°20'0 0.0
2018-Jul-10 06:00N 47°36' W 122°20'0 0.0
2018-Jul-10 05:30N 47°36' W 122°20'0 0.0
2018-Jul-10 04:58N 47°36' W 122°20'0 0.0
2018-Jul-10 04:28N 47°36' W 122°20'0 0.2
2018-Jul-10 04:00N 47°36' W 122°21'1 2.8
2018-Jul-10 03:30N 47°37' W 122°23'1 2.9
2018-Jul-10 03:00N 47°36' W 122°20'1 2.2
2018-Jul-10 02:30N 47°35' W 122°21'2 4.2
2018-Jul-10 02:00N 47°37' W 122°22'1 2.5
2018-Jul-10 01:30N 47°36' W 122°20'1 2.3
2018-Jul-10 01:01N 47°35' W 122°22'1 2.3
2018-Jul-10 00:31N 47°36' W 122°21'  
Track history (hours):
 
Tides and Currents Weather Stations Pressure Air Temp Water Temp Dewpoint Dewpoint Depression Visibility Wind Speed Wind Dir Waves Ship Positions

Spirit Of Seattle

Owner: ARGOSY Lp, SEATTLE, WA. More information available from US FCC via Universal Licensing System and Coast Guard Vessel Documentation Center.

Last reported at 2018-Jul-20 00:30 UTC. Time now 2018-Jul-20 00:41 UTC.
Position N 47°36' W 122°21'.

Length 36 m; draft 2 m.

Type: Passenger vessel. MMSI: 367013020.

Date/timePositionNaut miles runAvg speedWind from/ knotsBaromVisibWave heightAir tempDewpointWater temp
2018-Jul-20 00:30N 47°36' W 122°21'0 0.2
2018-Jul-20 00:00N 47°36' W 122°20'2 3.7
2018-Jul-19 23:29N 47°37' W 122°23'2 3.9
2018-Jul-19 23:00N 47°36' W 122°20'1 1.9
2018-Jul-19 22:30N 47°35' W 122°21'1 1.9
2018-Jul-19 21:58N 47°36' W 122°21'0 0.5
2018-Jul-19 21:30N 47°36' W 122°20'1 2.8
2018-Jul-19 21:00N 47°36' W 122°22'1 2.6
2018-Jul-19 20:30N 47°36' W 122°21'0 0.5
2018-Jul-19 20:01N 47°36' W 122°21'2 3.7
2018-Jul-19 19:30N 47°37' W 122°23'2 3.8
2018-Jul-19 19:00N 47°36' W 122°20'1 1.7
2018-Jul-19 18:31N 47°35' W 122°21'2 3.1
2018-Jul-19 18:00N 47°37' W 122°22'1 2.0
2018-Jul-19 17:30N 47°36' W 122°20'1 2.7
2018-Jul-19 17:01N 47°36' W 122°22'1 2.6
2018-Jul-19 16:30N 47°36' W 122°20'0 0.0
2018-Jul-19 16:00N 47°36' W 122°20'0 0.0
2018-Jul-19 15:30N 47°36' W 122°20'0 0.0
2018-Jul-19 12:46N 47°36' W 122°20'0 0.0
2018-Jul-19 12:28N 47°36' W 122°20'0 0.0
2018-Jul-19 11:59N 47°36' W 122°20'0 0.0
2018-Jul-19 11:26N 47°36' W 122°20'0 0.0
2018-Jul-19 10:59N 47°36' W 122°20'0 0.0
2018-Jul-19 10:30N 47°36' W 122°20'0 0.0
2018-Jul-19 10:00N 47°36' W 122°20'0 0.0
2018-Jul-19 09:30N 47°36' W 122°20'0 0.0
2018-Jul-19 08:58N 47°36' W 122°20'0 0.0
2018-Jul-19 08:28N 47°36' W 122°20'0 0.0
2018-Jul-19 07:58N 47°36' W 122°20'0 0.0
2018-Jul-19 07:29N 47°36' W 122°20'0 0.0
2018-Jul-19 06:59N 47°36' W 122°20'0 0.0
2018-Jul-19 06:29N 47°36' W 122°20'0 0.0
2018-Jul-19 06:00N 47°36' W 122°20'0 0.0
2018-Jul-19 05:30N 47°36' W 122°20'0 0.0
2018-Jul-19 05:00N 47°36' W 122°20'0 0.0
2018-Jul-19 04:28N 47°36' W 122°20'0 0.3
2018-Jul-19 04:01N 47°36' W 122°21'1 2.7
2018-Jul-19 03:31N 47°37' W 122°23'1 3.0
2018-Jul-19 03:00N 47°36' W 122°20'2 3.0
2018-Jul-19 02:31N 47°35' W 122°21'3 5.3
2018-Jul-19 02:01N 47°37' W 122°22'2 3.0
2018-Jul-19 01:30N 47°36' W 122°20'1 2.2
2018-Jul-19 01:01N 47°35' W 122°21'1 2.0
2018-Jul-19 00:30N 47°36' W 122°21'0 0.4
2018-Jul-19 00:00N 47°36' W 122°21'2 3.5
2018-Jul-18 23:31N 47°37' W 122°23'2 3.6
2018-Jul-18 23:00N 47°36' W 122°20'1 2.5
2018-Jul-18 22:31N 47°35' W 122°21'2 4.5
2018-Jul-18 22:00N 47°37' W 122°22'1 2.7
2018-Jul-18 21:30N 47°36' W 122°20'1 2.7
2018-Jul-18 21:00N 47°36' W 122°22'1 2.6
2018-Jul-18 20:31N 47°36' W 122°21'0 0.5
2018-Jul-18 20:01N 47°36' W 122°21'2 4.2
2018-Jul-18 19:31N 47°37' W 122°23'2 4.2
2018-Jul-18 19:00N 47°36' W 122°20'1 1.7
2018-Jul-18 18:30N 47°35' W 122°21'2 3.4
2018-Jul-18 18:01N 47°37' W 122°22'1 2.3
2018-Jul-18 17:30N 47°36' W 122°20'1 2.7
2018-Jul-18 17:00N 47°36' W 122°22'1 2.6
2018-Jul-18 16:31N 47°36' W 122°21'0 0.2
2018-Jul-18 15:59N 47°36' W 122°20'0 0.0
2018-Jul-18 15:29N 47°36' W 122°20'0 0.0
2018-Jul-18 14:59N 47°36' W 122°20'0 0.0
2018-Jul-18 14:30N 47°36' W 122°20'0 0.0
2018-Jul-18 13:27N 47°36' W 122°20'0 0.0
2018-Jul-18 12:58N 47°36' W 122°20'0 0.0
2018-Jul-18 12:28N 47°36' W 122°20'0 0.0
2018-Jul-18 11:58N 47°36' W 122°20'0 0.0
2018-Jul-18 11:29N 47°36' W 122°20'0 0.0
2018-Jul-18 10:29N 47°36' W 122°20'0 0.0
2018-Jul-18 10:00N 47°36' W 122°20'0 0.0
2018-Jul-18 09:30N 47°36' W 122°20'0 0.0
2018-Jul-18 09:00N 47°36' W 122°20'0 0.0
2018-Jul-18 08:28N 47°36' W 122°20'0 0.0
2018-Jul-18 07:58N 47°36' W 122°20'0 0.0
2018-Jul-18 07:28N 47°36' W 122°20'0 0.0
2018-Jul-18 06:59N 47°36' W 122°20'0 0.0
2018-Jul-18 06:29N 47°36' W 122°20'0 0.0
2018-Jul-18 05:59N 47°36' W 122°20'0 0.0
2018-Jul-18 05:30N 47°36' W 122°20'0 0.0
2018-Jul-18 05:00N 47°36' W 122°20'0 0.0
2018-Jul-18 04:30N 47°36' W 122°20'0 0.4
2018-Jul-18 04:00N 47°36' W 122°21'2 3.0
2018-Jul-18 03:30N 47°37' W 122°23'2 3.3
2018-Jul-18 03:00N 47°36' W 122°20'1 2.4
2018-Jul-18 02:30N 47°35' W 122°21'2 4.7
2018-Jul-18 02:01N 47°37' W 122°22'1 2.9
2018-Jul-18 01:30N 47°36' W 122°20'1 2.9
2018-Jul-18 01:00N 47°35' W 122°22'1 2.8
2018-Jul-18 00:30N 47°36' W 122°21'0 0.1
2018-Jul-18 00:00N 47°36' W 122°21'2 3.4
2018-Jul-17 23:30N 47°37' W 122°23'2 3.5
2018-Jul-17 23:00N 47°36' W 122°20'1 1.8
2018-Jul-17 22:31N 47°35' W 122°21'2 3.5
2018-Jul-17 22:00N 47°37' W 122°22'1 2.3
2018-Jul-17 21:30N 47°36' W 122°20'1 2.9
2018-Jul-17 21:01N 47°35' W 122°22'1 2.7
2018-Jul-17 20:30N 47°36' W 122°21'0 0.3
2018-Jul-17 20:00N 47°36' W 122°21'1 2.9
2018-Jul-17 19:30N 47°37' W 122°23'2 3.1
2018-Jul-17 19:00N 47°36' W 122°20'1 1.7
2018-Jul-17 18:30N 47°35' W 122°21'2 3.6
2018-Jul-17 18:00N 47°37' W 122°22'1 2.3
2018-Jul-17 17:30N 47°36' W 122°20'1 2.8
2018-Jul-17 17:00N 47°35' W 122°22'1 2.5
2018-Jul-17 16:29N 47°36' W 122°21'0 0.1
2018-Jul-17 16:00N 47°36' W 122°20'0 0.0
2018-Jul-17 15:30N 47°36' W 122°20'0 0.0
2018-Jul-17 15:00N 47°36' W 122°20'0 0.0
2018-Jul-17 14:29N 47°36' W 122°20'0 0.0
2018-Jul-17 13:59N 47°36' W 122°20'0 0.0
2018-Jul-17 13:30N 47°36' W 122°20'0 0.0
2018-Jul-17 13:00N 47°36' W 122°20'0 0.0
2018-Jul-17 12:30N 47°36' W 122°20'0 0.0
2018-Jul-17 11:58N 47°36' W 122°20'0 0.0
2018-Jul-17 11:28N 47°36' W 122°20'0 0.0
2018-Jul-17 10:58N 47°36' W 122°20'0 0.0
2018-Jul-17 10:29N 47°36' W 122°20'0 0.0
2018-Jul-17 09:59N 47°36' W 122°20'0 0.0
2018-Jul-17 09:29N 47°36' W 122°20'0 0.0
2018-Jul-17 09:00N 47°36' W 122°20'0 0.0
2018-Jul-17 08:30N 47°36' W 122°20'0 0.0
2018-Jul-17 08:00N 47°36' W 122°20'0 0.0
2018-Jul-17 07:28N 47°36' W 122°20'0 0.0
2018-Jul-17 06:58N 47°36' W 122°20'0 0.0
2018-Jul-17 06:28N 47°36' W 122°20'0 0.0
2018-Jul-17 05:59N 47°36' W 122°20'0 0.0
2018-Jul-17 05:29N 47°36' W 122°20'0 0.0
2018-Jul-17 04:56N 47°36' W 122°20'0 0.0
2018-Jul-17 04:30N 47°36' W 122°20'0 0.3
2018-Jul-17 04:00N 47°36' W 122°21'2 3.4
2018-Jul-17 03:30N 47°37' W 122°23'2 3.8
2018-Jul-17 03:00N 47°36' W 122°20'1 2.1
2018-Jul-17 02:30N 47°35' W 122°21'2 4.3
2018-Jul-17 02:00N 47°37' W 122°22'1 2.7
2018-Jul-17 01:30N 47°36' W 122°20'1 2.8
2018-Jul-17 01:00N 47°35' W 122°22'1 2.7
2018-Jul-17 00:30N 47°36' W 122°21'2 1.6
2018-Jul-16 23:30N 47°37' W 122°23'2 3.6
2018-Jul-16 23:00N 47°36' W 122°20'1 2.2
2018-Jul-16 22:30N 47°35' W 122°21'2 4.2
2018-Jul-16 22:00N 47°37' W 122°22'1 2.5
2018-Jul-16 21:29N 47°36' W 122°20'1 2.4
2018-Jul-16 21:00N 47°35' W 122°22'1 2.4
2018-Jul-16 20:30N 47°36' W 122°21'0 0.8
2018-Jul-16 20:00N 47°36' W 122°21'1 3.0
2018-Jul-16 19:30N 47°37' W 122°23'1 2.7
2018-Jul-16 18:59N 47°36' W 122°20'1 2.2
2018-Jul-16 18:30N 47°35' W 122°21'2 4.7
2018-Jul-16 18:00N 47°37' W 122°22'2 2.9
2018-Jul-16 17:29N 47°36' W 122°20'1 2.4
2018-Jul-16 17:00N 47°35' W 122°22'1 2.2
2018-Jul-16 16:28N 47°36' W 122°20'0 0.0
2018-Jul-16 15:58N 47°36' W 122°20'0 0.0
2018-Jul-16 15:28N 47°36' W 122°20'0 0.0
2018-Jul-16 14:59N 47°36' W 122°20'0 0.0
2018-Jul-16 14:29N 47°36' W 122°20'0 0.0
2018-Jul-16 13:59N 47°36' W 122°20'0 0.0
2018-Jul-16 13:30N 47°36' W 122°20'0 0.0
2018-Jul-16 13:00N 47°36' W 122°20'0 0.0
2018-Jul-16 12:30N 47°36' W 122°20'0 0.0
2018-Jul-16 11:58N 47°36' W 122°20'0 0.0
2018-Jul-16 11:28N 47°36' W 122°20'0 0.0
2018-Jul-16 10:58N 47°36' W 122°20'0 0.0
2018-Jul-16 10:29N 47°36' W 122°20'0 0.0
2018-Jul-16 09:59N 47°36' W 122°20'0 0.0
2018-Jul-16 09:29N 47°36' W 122°20'0 0.0
2018-Jul-16 09:00N 47°36' W 122°20'0 0.0
2018-Jul-16 08:30N 47°36' W 122°20'0 0.0
2018-Jul-16 08:00N 47°36' W 122°20'0 0.0
2018-Jul-16 07:28N 47°36' W 122°20'0 0.0
2018-Jul-16 06:58N 47°36' W 122°20'0 0.0
2018-Jul-16 06:28N 47°36' W 122°20'0 0.0
2018-Jul-16 05:59N 47°36' W 122°20'0 0.0
2018-Jul-16 05:29N 47°36' W 122°20'0 0.0
2018-Jul-16 04:59N 47°36' W 122°20'0 0.0
2018-Jul-16 04:30N 47°36' W 122°20'0 0.1
2018-Jul-16 04:00N 47°36' W 122°21'2 3.1
2018-Jul-16 03:30N 47°36' W 122°23'2 3.0
2018-Jul-16 02:58N 47°36' W 122°20'1 2.5
2018-Jul-16 02:31N 47°35' W 122°21'2 4.5
2018-Jul-16 02:01N 47°37' W 122°22'1 2.8
2018-Jul-16 01:30N 47°36' W 122°20'1 2.4
2018-Jul-16 01:00N 47°35' W 122°22'1 2.5
2018-Jul-16 00:30N 47°36' W 122°21'0 0.4
2018-Jul-15 23:59N 47°36' W 122°21'1 3.0
2018-Jul-15 23:30N 47°36' W 122°23'1 2.0
2018-Jul-15 22:45N 47°36' W 122°20'1 4.6
2018-Jul-15 22:30N 47°35' W 122°21'2 4.3
2018-Jul-15 22:01N 47°37' W 122°22'1 2.0
2018-Jul-15 21:23N 47°36' W 122°21'2 4.0
2018-Jul-15 21:00N 47°36' W 122°23'2 1.7
2018-Jul-15 20:04N 47°36' W 122°20'0 2.7
2018-Jul-15 20:00N 47°36' W 122°21'2 3.5
2018-Jul-15 19:30N 47°37' W 122°23'2 3.7
2018-Jul-15 19:00N 47°36' W 122°20'1 2.3
2018-Jul-15 18:30N 47°35' W 122°21'2 4.1
2018-Jul-15 18:00N 47°37' W 122°22'1 1.8
2018-Jul-15 17:21N 47°36' W 122°21'1 3.7
2018-Jul-15 17:00N 47°35' W 122°22'1 2.5
2018-Jul-15 16:31N 47°36' W 122°21'0 0.2
2018-Jul-15 15:59N 47°36' W 122°20'0 0.0
2018-Jul-15 15:30N 47°36' W 122°20'0 0.0
2018-Jul-15 15:00N 47°36' W 122°20'0 0.0
2018-Jul-15 14:31N 47°36' W 122°20'0 0.0
2018-Jul-15 14:00N 47°36' W 122°20'0 0.0
2018-Jul-15 13:30N 47°36' W 122°20'0 0.0
2018-Jul-15 13:00N 47°36' W 122°20'0 0.0
2018-Jul-15 12:30N 47°36' W 122°20'0 0.0
2018-Jul-15 12:01N 47°36' W 122°20'0 0.0
2018-Jul-15 11:30N 47°36' W 122°20'0 0.0
2018-Jul-15 11:00N 47°36' W 122°20'0 0.0
2018-Jul-15 10:31N 47°36' W 122°20'0 0.0
2018-Jul-15 10:01N 47°36' W 122°20'0 0.0
2018-Jul-15 09:31N 47°36' W 122°20'0 0.0
2018-Jul-15 09:01N 47°36' W 122°20'0 0.0
2018-Jul-15 08:31N 47°36' W 122°20'0 0.0
2018-Jul-15 08:01N 47°36' W 122°20'0 0.0
2018-Jul-15 07:30N 47°36' W 122°20'0 0.0
2018-Jul-15 07:00N 47°36' W 122°20'0 0.0
2018-Jul-15 06:30N 47°36' W 122°20'0 0.0
2018-Jul-15 04:45N 47°36' W 122°20'0 0.0
2018-Jul-15 04:28N 47°36' W 122°20'0 0.3
2018-Jul-15 03:57N 47°36' W 122°21'1 3.4
2018-Jul-15 03:31N 47°37' W 122°23'2 3.2
2018-Jul-15 03:00N 47°36' W 122°20'1 2.1
2018-Jul-15 02:31N 47°35' W 122°21'2 4.1
2018-Jul-15 02:01N 47°37' W 122°22'1 2.3
2018-Jul-15 01:25N 47°36' W 122°20'1 2.8
2018-Jul-15 01:01N 47°36' W 122°22'1 2.1
2018-Jul-15 00:29N 47°36' W 122°21'0 0.1
2018-Jul-15 00:00N 47°36' W 122°21'1 2.9
2018-Jul-14 23:31N 47°37' W 122°23'1 2.9
2018-Jul-14 23:00N 47°36' W 122°20'1 2.4
2018-Jul-14 22:31N 47°35' W 122°21'2 3.8
2018-Jul-14 22:00N 47°37' W 122°22'1 1.9
2018-Jul-14 21:30N 47°36' W 122°20'1 2.8
2018-Jul-14 21:00N 47°36' W 122°22'1 2.7
2018-Jul-14 20:30N 47°36' W 122°21'0 0.2
2018-Jul-14 20:00N 47°36' W 122°21'2 3.7
2018-Jul-14 19:31N 47°37' W 122°23'2 3.8
2018-Jul-14 19:01N 47°36' W 122°20'1 2.4
2018-Jul-14 18:31N 47°35' W 122°21'2 4.1
2018-Jul-14 18:00N 47°37' W 122°22'1 2.4
2018-Jul-14 17:31N 47°36' W 122°20'1 2.8
2018-Jul-14 17:01N 47°36' W 122°22'1 2.8
2018-Jul-14 16:30N 47°36' W 122°20'0 0.0
2018-Jul-14 16:00N 47°36' W 122°20'0 0.0
2018-Jul-14 15:30N 47°36' W 122°20'0 0.0
2018-Jul-14 14:56N 47°36' W 122°20'0 0.0
2018-Jul-14 14:30N 47°36' W 122°20'0 0.0
2018-Jul-14 13:30N 47°36' W 122°20'0 0.0
2018-Jul-14 12:58N 47°36' W 122°20'0 0.0
2018-Jul-14 12:28N 47°36' W 122°20'0 0.0
2018-Jul-14 11:58N 47°36' W 122°20'0 0.0
2018-Jul-14 11:29N 47°36' W 122°20'0 0.0
2018-Jul-14 10:59N 47°36' W 122°20'0 0.0
2018-Jul-14 10:29N 47°36' W 122°20'0 0.0
2018-Jul-14 10:00N 47°36' W 122°20'0 0.0
2018-Jul-14 09:30N 47°36' W 122°20'0 0.0
2018-Jul-14 08:57N 47°36' W 122°20'0 0.0
2018-Jul-14 08:31N 47°36' W 122°20'0 0.0
2018-Jul-14 07:55N 47°36' W 122°20'0 0.0
2018-Jul-14 06:56N 47°36' W 122°20'0 0.0
2018-Jul-14 06:20N 47°36' W 122°20'0 0.0
2018-Jul-14 05:56N 47°36' W 122°20'0 0.0
2018-Jul-14 05:27N 47°36' W 122°20'0 0.0
2018-Jul-14 05:00N 47°36' W 122°20'0 0.0
2018-Jul-14 04:30N 47°36' W 122°20'0 0.1
2018-Jul-14 04:00N 47°36' W 122°21'2 3.2
2018-Jul-14 03:30N 47°37' W 122°23'2 3.3
2018-Jul-14 03:00N 47°36' W 122°20'1 2.5
2018-Jul-14 02:30N 47°35' W 122°21'2 4.6
2018-Jul-14 02:00N 47°37' W 122°22'1 2.7
2018-Jul-14 01:30N 47°36' W 122°20'1 2.4
2018-Jul-14 01:00N 47°36' W 122°22'1 2.3
2018-Jul-14 00:30N 47°36' W 122°21'0 0.1
2018-Jul-14 00:00N 47°36' W 122°21'2 3.1
2018-Jul-13 23:30N 47°37' W 122°23'2 3.2
2018-Jul-13 23:00N 47°36' W 122°20'1 1.8
2018-Jul-13 22:30N 47°35' W 122°21'2 3.8
2018-Jul-13 22:00N 47°37' W 122°22'1 1.9
2018-Jul-13 21:23N 47°36' W 122°21'1 3.0
2018-Jul-13 21:00N 47°36' W 122°22'1 2.3
2018-Jul-13 20:30N 47°36' W 122°21'0 0.2
2018-Jul-13 20:00N 47°36' W 122°21'2 3.2
2018-Jul-13 19:30N 47°37' W 122°23'2 3.4
2018-Jul-13 19:00N 47°36' W 122°20'1 2.0
2018-Jul-13 18:30N 47°35' W 122°21'2 3.2
2018-Jul-13 18:00N 47°37' W 122°21'1 1.6
2018-Jul-13 17:30N 47°36' W 122°20'1 2.4
2018-Jul-13 17:00N 47°35' W 122°22'1 2.3
2018-Jul-13 16:29N 47°36' W 122°20'0 0.0
2018-Jul-13 16:00N 47°36' W 122°20'0 0.0
2018-Jul-13 15:30N 47°36' W 122°20'0 0.0
2018-Jul-13 15:00N 47°36' W 122°20'0 0.0
2018-Jul-13 14:30N 47°36' W 122°20'0 0.0
2018-Jul-13 13:30N 47°36' W 122°20'0 0.0
2018-Jul-13 13:00N 47°36' W 122°20'0 0.0
2018-Jul-13 12:30N 47°36' W 122°20'0 0.0
2018-Jul-13 12:00N 47°36' W 122°20'0 0.0
2018-Jul-13 11:30N 47°36' W 122°20'0 0.0
2018-Jul-13 11:00N 47°36' W 122°20'0 0.0
2018-Jul-13 10:30N 47°36' W 122°20'0 0.0
2018-Jul-13 10:00N 47°36' W 122°20'0 0.0
2018-Jul-13 09:30N 47°36' W 122°20'0 0.0
2018-Jul-13 09:00N 47°36' W 122°20'0 0.0
2018-Jul-13 08:30N 47°36' W 122°20'0 0.0
2018-Jul-13 08:00N 47°36' W 122°20'0 0.0
2018-Jul-13 07:30N 47°36' W 122°20'0 0.0
2018-Jul-13 06:59N 47°36' W 122°20'0 0.0
2018-Jul-13 06:30N 47°36' W 122°20'0 0.0
2018-Jul-13 06:00N 47°36' W 122°20'0 0.0
2018-Jul-13 05:30N 47°36' W 122°20'0 0.0
2018-Jul-13 05:00N 47°36' W 122°20'0 0.0
2018-Jul-13 04:30N 47°36' W 122°20'0 0.0
2018-Jul-13 04:00N 47°36' W 122°20'1 2.8
2018-Jul-13 03:30N 47°36' W 122°23'1 2.8
2018-Jul-13 03:00N 47°36' W 122°20'1 2.3
2018-Jul-13 02:30N 47°35' W 122°21'2 3.9
2018-Jul-13 02:00N 47°37' W 122°22'1 2.2
2018-Jul-13 01:30N 47°36' W 122°20'1 2.9
2018-Jul-13 01:00N 47°36' W 122°22'1 2.8
2018-Jul-13 00:30N 47°36' W 122°21'0 0.2
2018-Jul-13 00:00N 47°36' W 122°21'2 3.1
2018-Jul-12 23:30N 47°37' W 122°23'2 3.2
2018-Jul-12 23:00N 47°36' W 122°20'1 2.3
2018-Jul-12 22:30N 47°35' W 122°21'2 4.2
2018-Jul-12 22:00N 47°37' W 122°22'1 2.5
2018-Jul-12 21:30N 47°36' W 122°20'1 2.6
2018-Jul-12 21:00N 47°36' W 122°22'1 2.4
2018-Jul-12 20:30N 47°36' W 122°21'0 0.3
2018-Jul-12 20:00N 47°36' W 122°21'2 4.0
2018-Jul-12 19:30N 47°37' W 122°23'2 4.1
2018-Jul-12 19:00N 47°36' W 122°20'1 1.9
2018-Jul-12 18:30N 47°35' W 122°21'2 3.1
2018-Jul-12 18:00N 47°37' W 122°22'1 2.1
2018-Jul-12 17:30N 47°36' W 122°20'1 2.6
2018-Jul-12 17:00N 47°36' W 122°22'1 2.5
2018-Jul-12 16:30N 47°36' W 122°21'0 0.2
2018-Jul-12 15:59N 47°36' W 122°20'0 0.0
2018-Jul-12 15:30N 47°36' W 122°20'0 0.0
2018-Jul-12 15:00N 47°36' W 122°20'0 0.0
2018-Jul-12 14:30N 47°36' W 122°20'0 0.0
2018-Jul-12 13:58N 47°36' W 122°20'0 0.0
2018-Jul-12 13:28N 47°36' W 122°20'0 0.0
2018-Jul-12 12:58N 47°36' W 122°20'0 0.0
2018-Jul-12 12:29N 47°36' W 122°20'0 0.0
2018-Jul-12 11:59N 47°36' W 122°20'0 0.0
2018-Jul-12 11:29N 47°36' W 122°20'0 0.0
2018-Jul-12 11:00N 47°36' W 122°20'0 0.0
2018-Jul-12 10:30N 47°36' W 122°20'0 0.0
2018-Jul-12 10:00N 47°36' W 122°20'0 0.0
2018-Jul-12 09:28N 47°36' W 122°20'0 0.0
2018-Jul-12 08:58N 47°36' W 122°20'0 0.0
2018-Jul-12 08:28N 47°36' W 122°20'0 0.0
2018-Jul-12 07:59N 47°36' W 122°20'0 0.0
2018-Jul-12 07:29N 47°36' W 122°20'0 0.0
2018-Jul-12 06:59N 47°36' W 122°20'0 0.0
2018-Jul-12 06:27N 47°36' W 122°20'0 0.0
2018-Jul-12 06:00N 47°36' W 122°20'0 0.0
2018-Jul-12 05:30N 47°36' W 122°20'0 0.0
2018-Jul-12 04:58N 47°36' W 122°20'0 0.0
2018-Jul-12 04:28N 47°36' W 122°20'0 0.0
2018-Jul-12 03:58N 47°36' W 122°20'0 0.0
2018-Jul-12 03:29N 47°36' W 122°20'0 0.0
2018-Jul-12 02:59N 47°36' W 122°20'0 0.0
2018-Jul-12 02:29N 47°36' W 122°20'0 0.0
2018-Jul-12 02:00N 47°36' W 122°20'0 0.0
2018-Jul-12 01:30N 47°36' W 122°20'0 0.0
2018-Jul-12 01:00N 47°36' W 122°20'0 0.0
2018-Jul-12 00:28N 47°36' W 122°20'0 0.0
2018-Jul-11 23:58N 47°36' W 122°20'0 0.0
2018-Jul-11 23:28N 47°36' W 122°20'0 0.0
2018-Jul-11 22:59N 47°36' W 122°20'0 0.0
2018-Jul-11 22:11N 47°36' W 122°20'0 0.0
2018-Jul-11 21:59N 47°36' W 122°20'0 0.0
2018-Jul-11 21:30N 47°36' W 122°20'0 0.0
2018-Jul-11 21:00N 47°36' W 122°20'0 0.0
2018-Jul-11 20:30N 47°36' W 122°20'0 0.4
2018-Jul-11 20:00N 47°36' W 122°21'2 3.7
2018-Jul-11 19:30N 47°37' W 122°23'2 3.7
2018-Jul-11 19:00N 47°36' W 122°20'1 2.1
2018-Jul-11 18:30N 47°35' W 122°21'2 3.8
2018-Jul-11 18:00N 47°37' W 122°22'1 2.3
2018-Jul-11 17:29N 47°36' W 122°20'1 2.8
2018-Jul-11 17:00N 47°36' W 122°22'1 2.6
2018-Jul-11 16:31N 47°36' W 122°21'0 0.4
2018-Jul-11 15:59N 47°36' W 122°20'0 0.0
2018-Jul-11 15:29N 47°36' W 122°20'0 0.0
2018-Jul-11 14:59N 47°36' W 122°20'0 0.0
2018-Jul-11 14:30N 47°36' W 122°20'0 0.0
2018-Jul-11 14:00N 47°36' W 122°20'0 0.0
2018-Jul-11 13:30N 47°36' W 122°20'0 0.0
2018-Jul-11 13:01N 47°36' W 122°20'0 0.0
2018-Jul-11 12:28N 47°36' W 122°20'0 0.0
2018-Jul-11 11:58N 47°36' W 122°20'0 0.0
2018-Jul-11 11:29N 47°36' W 122°20'0 0.0
2018-Jul-11 10:59N 47°36' W 122°20'0 0.0
2018-Jul-11 10:29N 47°36' W 122°20'0 0.0
2018-Jul-11 10:00N 47°36' W 122°20'0 0.0
2018-Jul-11 09:30N 47°36' W 122°20'0 0.0
2018-Jul-11 09:00N 47°36' W 122°20'0 0.0
2018-Jul-11 08:30N 47°36' W 122°20'0 0.0
2018-Jul-11 07:58N 47°36' W 122°20'0 0.0
2018-Jul-11 07:28N 47°36' W 122°20'0 0.0
2018-Jul-11 06:56N 47°36' W 122°20'0 0.0
2018-Jul-11 06:29N 47°36' W 122°20'0 0.0
2018-Jul-11 05:59N 47°36' W 122°20'0 0.0
2018-Jul-11 05:29N 47°36' W 122°20'0 0.0
2018-Jul-11 05:00N 47°36' W 122°20'0 0.0
2018-Jul-11 04:30N 47°36' W 122°20'0 0.2
2018-Jul-11 04:01N 47°36' W 122°21'1 2.8
2018-Jul-11 03:31N 47°37' W 122°23'1 2.8
2018-Jul-11 02:59N 47°36' W 122°20'1 1.9
2018-Jul-11 02:31N 47°36' W 122°21'2 3.0
2018-Jul-11 02:01N 47°37' W 122°22'1 2.1
2018-Jul-11 01:30N 47°36' W 122°20'1 2.4
2018-Jul-11 01:01N 47°35' W 122°22'1 2.3
2018-Jul-11 00:30N 47°36' W 122°21'0 0.2
2018-Jul-11 00:00N 47°36' W 122°21'2 3.3
2018-Jul-10 23:31N 47°37' W 122°23'2 3.2
2018-Jul-10 22:58N 47°36' W 122°20'1 2.6
2018-Jul-10 22:30N 47°35' W 122°21'2 4.1
2018-Jul-10 22:00N 47°37' W 122°22'1 2.1
2018-Jul-10 21:28N 47°36' W 122°20'2 3.9
2018-Jul-10 21:00N 47°36' W 122°23'2 3.4
2018-Jul-10 20:28N 47°36' W 122°20'0 0.1
2018-Jul-10 20:00N 47°36' W 122°21'2 3.8
2018-Jul-10 19:30N 47°37' W 122°23'2 3.3
2018-Jul-10 18:55N 47°36' W 122°20'1 2.5
2018-Jul-10 18:30N 47°35' W 122°21'2 4.2
2018-Jul-10 18:00N 47°37' W 122°22'1 2.4
2018-Jul-10 17:25N 47°36' W 122°20'1 3.4
2018-Jul-10 17:01N 47°35' W 122°22'1 2.7
2018-Jul-10 16:30N 47°36' W 122°21'0 0.3
2018-Jul-10 15:58N 47°36' W 122°20'0 1.1
2018-Jul-10 15:30N 47°36' W 122°21'0 1.0
2018-Jul-10 15:00N 47°36' W 122°20'0 0.0
2018-Jul-10 14:30N 47°36' W 122°20'0 0.0
2018-Jul-10 13:58N 47°36' W 122°20'0 0.0
2018-Jul-10 13:28N 47°36' W 122°20'0 0.0
2018-Jul-10 12:58N 47°36' W 122°20'0 0.0
2018-Jul-10 12:29N 47°36' W 122°20'0 0.0
2018-Jul-10 11:59N 47°36' W 122°20'0 0.0
2018-Jul-10 11:29N 47°36' W 122°20'0 0.0
2018-Jul-10 11:00N 47°36' W 122°20'0 0.0
2018-Jul-10 10:30N 47°36' W 122°20'0 0.0
2018-Jul-10 10:00N 47°36' W 122°20'0 0.0
2018-Jul-10 09:28N 47°36' W 122°20'0 0.0
2018-Jul-10 08:58N 47°36' W 122°20'0 0.0
2018-Jul-10 08:28N 47°36' W 122°20'0 0.0
2018-Jul-10 07:59N 47°36' W 122°20'0 0.0
2018-Jul-10 07:29N 47°36' W 122°20'0 0.0
2018-Jul-10 06:59N 47°36' W 122°20'0 0.0
2018-Jul-10 06:30N 47°36' W 122°20'0 0.0
2018-Jul-10 06:00N 47°36' W 122°20'0 0.0
2018-Jul-10 05:30N 47°36' W 122°20'0 0.0
2018-Jul-10 04:58N 47°36' W 122°20'0 0.0
2018-Jul-10 04:28N 47°36' W 122°20'0 0.2
2018-Jul-10 04:00N 47°36' W 122°21'1 2.8
2018-Jul-10 03:30N 47°37' W 122°23'1 2.9
2018-Jul-10 03:00N 47°36' W 122°20'1 2.2
2018-Jul-10 02:30N 47°35' W 122°21'2 4.2
2018-Jul-10 02:00N 47°37' W 122°22'1 2.5
2018-Jul-10 01:30N 47°36' W 122°20'1 2.3
2018-Jul-10 01:01N 47°35' W 122°22'1 2.3
2018-Jul-10 00:31N 47°36' W 122°21'  

Dump ship's entire track history